Nearby METAR Reports

 

KHQM - Hoquiam,WA, USA
Updated: Fri, 17-Aug-2018 3:27am PDT
Overcast
Overcast
 Wind from W
Wind: W 6 mph , 9 km/h
Temperature: 57°F , 14°C
Dew Point: 54°F , 12°C
Humidity: 88%
Barometer: 30.21 inHg , 1023 hPa
Clouds: Overcast
Visibility: 8 miles , 13 km
Cloud details: Overcast 1400 ft
2018/08/17 10:27 KHQM 171027Z AUTO 28005KT 8SM OVC014 14/12 A3021 RMK AO2 T01390122